En Direct

LFST 260430Z AUTO 25017KT 9999 -RA FEW034/// BKN052/// OVC066/// ///TCU 10/04 Q1003 BECMG FEW030 BKN050


TAF LFST 251700Z 2518/2618 27010KT 9999 FEW030 BKN050 TEMPO 2518/2521 -SHRA FEW030CB TEMPO 2603/2618 27015G25KT -RA FEW030TCU

Nos Avions

7 avions disponibles et entretenus par un atelier agréé, permettant tous types de vols (formation, promenade, voyage…)

l'école de pilotage

PPL, LAPL, Vol de nuit, SEP… Toutes ces formations sont dispensées par nos instructeurs bénévoles.
Formation Théorique Mermoz via la FFA

Notre Plateforme

Nous sommes basés à l’aéroport de Strasbourg-Entzheim (LFST) en plein coeur de l’Alsace qui permet de voyager rapidement outre Rhin, mais également de profiter des paysages variés

Nos réseaux

Suivez-nous sur les réseaux sociaux